Time;durP1;ratioP1;P1;durP2;ratioP2;P2;SDS_P1;SDS_P2;PMS_P1;PMS_P2;Temp;Humidity;BMP_temperature;BMP_pressure;BME280_temperature;BME280_humidity;BME280_pressure;Samples;Min_cycle;Max_cycle;Signal;HPM_P1;HPM_P2
2022/01/09 00:00:56;;;;;;;15.97;6.06;;;;;;;;;;367037;144;864612;-58
2022/01/09 00:01:58;;;;;;;15.56;6.63;;;;;;;;;;366537;144;865131;-57
2022/01/09 00:03:00;;;;;;;11.93;6.07;;;;;;;;;;369180;144;864145;-58
2022/01/09 00:04:01;;;;;;;10.79;5.76;;;;;;;;;;370694;144;864910;-58
2022/01/09 00:05:03;;;;;;;12.64;6.95;;;;;;;;;;370409;144;864973;-58
2022/01/09 00:06:05;;;;;;;10.09;5.59;;;;;;;;;;365960;144;865365;-58
2022/01/09 00:07:06;;;;;;;12.16;5.54;;;;;;;;;;368159;144;858628;-57
2022/01/09 00:08:08;;;;;;;8.19;4.16;;;;;;;;;;366019;144;865123;-58
2022/01/09 00:09:09;;;;;;;9.76;5.07;;;;;;;;;;368530;144;862585;-58
2022/01/09 00:10:13;;;;;;;12.37;6.33;;;;;;;;;;367625;144;857503;-58
2022/01/09 00:11:15;;;;;;;16.30;5.37;;;;;;;;;;368735;144;858312;-58
2022/01/09 00:12:16;;;;;;;11.15;5.18;;;;;;;;;;365831;144;865066;-58
2022/01/09 00:13:18;;;;;;;15.41;5.90;;;;;;;;;;367447;144;857328;-58
2022/01/09 00:14:20;;;;;;;17.72;6.91;;;;;;;;;;367643;144;866528;-58
2022/01/09 00:15:21;;;;;;;11.56;5.56;;;;;;;;;;368422;144;865910;-58
2022/01/09 00:16:23;;;;;;;10.81;5.33;;;;;;;;;;366515;144;864934;-58
2022/01/09 00:17:25;;;;;;;13.57;5.41;;;;;;;;;;368060;144;858856;-58
2022/01/09 00:18:26;;;;;;;15.31;5.26;;;;;;;;;;367546;144;857106;-58
2022/01/09 00:19:28;;;;;;;9.89;5.44;;;;;;;;;;366483;144;861127;-58
2022/01/09 00:20:30;;;;;;;15.21;6.15;;;;;;;;;;363765;147;865921;-58
2022/01/09 00:21:32;;;;;;;22.72;8.17;;;;;;;;;;364274;146;865102;-58
2022/01/09 00:22:42;;;;;;;15.00;7.18;;;;;;;;;;365905;144;858042;-58
2022/01/09 00:23:42;;;;;;;16.73;6.43;;;;;;;;;;365936;144;864047;-59
2022/01/09 00:24:43;;;;;;;10.80;5.72;;;;;;;;;;366580;144;860702;-59
2022/01/09 00:25:45;;;;;;;11.04;5.86;;;;;;;;;;366270;144;857772;-59
2022/01/09 00:26:46;;;;;;;12.98;5.75;;;;;;;;;;366419;144;866715;-59
2022/01/09 00:27:48;;;;;;;13.66;5.06;;;;;;;;;;367161;144;857774;-58
2022/01/09 00:28:50;;;;;;;14.80;5.16;;;;;;;;;;366765;144;866686;-59
2022/01/09 00:29:51;;;;;;;11.37;5.09;;;;;;;;;;368688;144;858144;-59
2022/01/09 00:30:53;;;;;;;6.93;4.37;;;;;;;;;;366710;144;865469;-59
2022/01/09 00:31:55;;;;;;;20.29;8.04;;;;;;;;;;365807;144;864755;-59
2022/01/09 00:32:57;;;;;;;15.56;6.30;;;;;;;;;;366947;144;857623;-59
2022/01/09 00:33:58;;;;;;;13.79;5.84;;;;;;;;;;366846;144;857328;-59
2022/01/09 00:35:00;;;;;;;7.17;4.58;;;;;;;;;;366822;144;857218;-59
2022/01/09 00:36:02;;;;;;;9.53;5.05;;;;;;;;;;366268;144;857296;-59
2022/01/09 00:37:03;;;;;;;11.05;5.05;;;;;;;;;;367305;144;858618;-59
2022/01/09 00:38:05;;;;;;;10.77;5.31;;;;;;;;;;367560;144;864465;-59
2022/01/09 00:39:06;;;;;;;9.47;5.36;;;;;;;;;;366814;144;857147;-59
2022/01/09 00:40:10;;;;;;;10.70;5.35;;;;;;;;;;361933;147;857288;-58
2022/01/09 00:41:12;;;;;;;9.37;4.76;;;;;;;;;;365950;144;866046;-58
2022/01/09 00:42:15;;;;;;;9.61;5.06;;;;;;;;;;358969;147;858206;-58
2022/01/09 00:43:16;;;;;;;14.24;4.73;;;;;;;;;;365887;144;857298;-58
2022/01/09 00:44:18;;;;;;;12.84;5.89;;;;;;;;;;366387;144;865166;-58
2022/01/09 00:45:19;;;;;;;13.08;6.36;;;;;;;;;;367755;144;864152;-58
2022/01/09 00:46:22;;;;;;;16.23;7.28;;;;;;;;;;366290;146;861242;-58
2022/01/09 00:47:24;;;;;;;10.86;5.69;;;;;;;;;;365450;147;859044;-58
2022/01/09 00:48:25;;;;;;;7.49;4.71;;;;;;;;;;362877;145;858041;-58
2022/01/09 00:49:27;;;;;;;10.14;4.70;;;;;;;;;;362593;146;861405;-58
2022/01/09 00:50:29;;;;;;;8.99;4.61;;;;;;;;;;365697;146;859942;-58
2022/01/09 00:51:31;;;;;;;10.10;4.68;;;;;;;;;;363831;146;857672;-57
2022/01/09 00:52:32;;;;;;;8.20;4.06;;;;;;;;;;365352;146;865424;-58
2022/01/09 00:53:34;;;;;;;11.62;5.06;;;;;;;;;;365487;146;864751;-58
2022/01/09 00:54:35;;;;;;;13.62;6.10;;;;;;;;;;364368;147;857268;-58
2022/01/09 00:55:37;;;;;;;9.52;4.71;;;;;;;;;;364526;147;860136;-58
2022/01/09 00:56:39;;;;;;;7.21;4.41;;;;;;;;;;365930;147;856418;-59
2022/01/09 00:57:40;;;;;;;8.37;4.24;;;;;;;;;;357034;150;866342;-58
2022/01/09 00:58:42;;;;;;;11.87;4.36;;;;;;;;;;357259;149;859194;-58
2022/01/09 00:59:44;;;;;;;8.99;4.74;;;;;;;;;;356389;149;866087;-58
2022/01/09 01:00:46;;;;;;;6.36;4.02;;;;;;;;;;358110;150;858884;-59
2022/01/09 01:01:47;;;;;;;10.91;5.59;;;;;;;;;;357809;150;864757;-58
2022/01/09 01:02:49;;;;;;;11.15;4.58;;;;;;;;;;356674;149;860845;-58
2022/01/09 01:03:51;;;;;;;11.68;5.23;;;;;;;;;;354836;150;857326;-60
2022/01/09 01:04:52;;;;;;;11.18;4.61;;;;;;;;;;354878;150;857316;-60
2022/01/09 01:05:54;;;;;;;15.36;5.89;;;;;;;;;;356140;149;863268;-60
2022/01/09 01:06:56;;;;;;;13.25;5.49;;;;;;;;;;352616;150;859243;-58
2022/01/09 01:07:57;;;;;;;9.35;4.98;;;;;;;;;;357994;150;865113;-58
2022/01/09 01:08:59;;;;;;;13.05;5.39;;;;;;;;;;356636;150;865019;-58
2022/01/09 01:10:01;;;;;;;9.43;4.98;;;;;;;;;;354478;149;857181;-58
2022/01/09 01:11:03;;;;;;;7.52;4.01;;;;;;;;;;352509;150;864175;-58
2022/01/09 01:12:05;;;;;;;11.88;5.99;;;;;;;;;;355567;150;864786;-58
2022/01/09 01:13:06;;;;;;;17.82;7.80;;;;;;;;;;351417;150;866731;-58
2022/01/09 01:14:08;;;;;;;9.89;5.35;;;;;;;;;;357665;147;858714;-58
2022/01/09 01:15:10;;;;;;;15.83;7.09;;;;;;;;;;350821;152;865047;-58
2022/01/09 01:16:12;;;;;;;14.35;5.80;;;;;;;;;;352001;152;858180;-58
2022/01/09 01:17:14;;;;;;;11.09;5.44;;;;;;;;;;350449;152;857800;-58
2022/01/09 01:18:15;;;;;;;13.45;6.76;;;;;;;;;;351251;152;860161;-58
2022/01/09 01:19:23;;;;;;;12.51;4.99;;;;;;;;;;352786;150;857338;-58
2022/01/09 01:20:27;;;;;;;8.49;4.57;;;;;;;;;;353500;149;865159;-58
2022/01/09 01:21:30;;;;;;;9.31;5.33;;;;;;;;;;353541;151;857096;-58
2022/01/09 01:22:32;;;;;;;13.13;5.54;;;;;;;;;;350834;150;857705;-58
2022/01/09 01:23:34;;;;;;;7.90;4.27;;;;;;;;;;353917;150;858490;-57
2022/01/09 01:24:37;;;;;;;9.99;5.30;;;;;;;;;;353410;150;857287;-58
2022/01/09 01:25:40;;;;;;;10.19;4.89;;;;;;;;;;350792;152;867119;-58
2022/01/09 01:26:42;;;;;;;14.88;6.91;;;;;;;;;;353931;150;857255;-59
2022/01/09 01:27:43;;;;;;;12.95;5.26;;;;;;;;;;358521;149;857266;-57
2022/01/09 01:28:45;;;;;;;9.02;4.51;;;;;;;;;;357905;149;866657;-58
2022/01/09 01:29:46;;;;;;;8.21;3.81;;;;;;;;;;356535;149;865006;-58
2022/01/09 01:30:48;;;;;;;25.50;9.33;;;;;;;;;;356082;149;861354;-58
2022/01/09 01:31:50;;;;;;;11.92;5.23;;;;;;;;;;354087;150;866484;-60
2022/01/09 01:32:51;;;;;;;16.21;5.46;;;;;;;;;;358139;150;865564;-60
2022/01/09 01:33:53;;;;;;;18.69;7.96;;;;;;;;;;356976;149;860336;-60
2022/01/09 01:34:54;;;;;;;5.46;3.27;;;;;;;;;;355268;150;860721;-60
2022/01/09 01:35:56;;;;;;;17.95;6.85;;;;;;;;;;357765;150;859456;-60
2022/01/09 01:36:58;;;;;;;16.50;7.35;;;;;;;;;;357114;150;859724;-60
2022/01/09 01:38:00;;;;;;;16.34;5.99;;;;;;;;;;355549;149;865924;-60
2022/01/09 01:39:02;;;;;;;24.80;9.35;;;;;;;;;;354572;150;864941;-60
2022/01/09 01:40:07;;;;;;;20.37;7.15;;;;;;;;;;356161;150;859082;-59
2022/01/09 01:41:09;;;;;;;14.77;6.51;;;;;;;;;;356882;150;857628;-58
2022/01/09 01:42:11;;;;;;;13.24;5.59;;;;;;;;;;358154;150;857692;-58
2022/01/09 01:43:12;;;;;;;16.41;6.23;;;;;;;;;;357669;150;856891;-58
2022/01/09 01:44:15;;;;;;;9.46;4.61;;;;;;;;;;356189;149;863945;-58
2022/01/09 01:45:17;;;;;;;12.87;4.87;;;;;;;;;;354292;149;858033;-59
2022/01/09 01:46:19;;;;;;;12.19;5.55;;;;;;;;;;353879;149;857426;-59
2022/01/09 01:47:21;;;;;;;17.20;6.10;;;;;;;;;;354906;147;865157;-59
2022/01/09 01:48:22;;;;;;;29.53;10.49;;;;;;;;;;355238;147;865585;-59
2022/01/09 01:49:24;;;;;;;13.26;5.56;;;;;;;;;;355089;149;864885;-57
2022/01/09 01:50:27;;;;;;;11.52;4.80;;;;;;;;;;353348;147;866776;-57
2022/01/09 01:51:29;;;;;;;12.26;5.44;;;;;;;;;;354738;149;857576;-58
2022/01/09 01:52:36;;;;;;;16.14;6.14;;;;;;;;;;353286;150;857223;-60
2022/01/09 01:53:34;;;;;;;12.13;5.31;;;;;;;;;;355723;149;866669;-60
2022/01/09 01:54:35;;;;;;;9.76;5.09;;;;;;;;;;356864;147;858787;-59
2022/01/09 01:55:38;;;;;;;11.01;5.01;;;;;;;;;;358782;147;865058;-59
2022/01/09 01:56:40;;;;;;;17.11;6.87;;;;;;;;;;356001;149;860250;-59
2022/01/09 01:57:42;;;;;;;10.87;6.04;;;;;;;;;;355345;147;857739;-59
2022/01/09 01:58:43;;;;;;;19.25;8.15;;;;;;;;;;357698;147;857279;-59
2022/01/09 01:59:45;;;;;;;15.75;6.07;;;;;;;;;;357224;149;857172;-59
2022/01/09 02:00:47;;;;;;;11.42;5.40;;;;;;;;;;357528;148;865915;-59
2022/01/09 02:01:48;;;;;;;32.74;8.92;;;;;;;;;;355929;147;866054;-59
2022/01/09 02:02:50;;;;;;;17.46;6.53;;;;;;;;;;356338;147;865560;-59
2022/01/09 02:03:51;;;;;;;29.81;9.24;;;;;;;;;;355721;150;865351;-59
2022/01/09 02:04:54;;;;;;;14.72;6.50;;;;;;;;;;355949;148;859458;-59
2022/01/09 02:05:56;;;;;;;14.27;6.44;;;;;;;;;;358291;147;857396;-59
2022/01/09 02:06:57;;;;;;;14.13;5.70;;;;;;;;;;355314;149;863963;-59
2022/01/09 02:08:02;;;;;;;8.22;4.19;;;;;;;;;;356104;149;857240;-59
2022/01/09 02:09:03;;;;;;;15.34;5.79;;;;;;;;;;355761;149;865984;-59
2022/01/09 02:10:07;;;;;;;16.24;7.17;;;;;;;;;;355750;147;858248;-59
2022/01/09 02:11:09;;;;;;;26.33;7.72;;;;;;;;;;355544;150;856056;-59
2022/01/09 02:12:11;;;;;;;24.31;8.29;;;;;;;;;;356157;147;859035;-59
2022/01/09 02:13:13;;;;;;;18.69;6.06;;;;;;;;;;356033;147;866591;-56
2022/01/09 02:14:14;;;;;;;22.62;7.03;;;;;;;;;;356198;147;860424;-58
2022/01/09 02:15:27;;;;;;;19.44;8.03;;;;;;;;;;353963;149;862642;-58
2022/01/09 02:16:29;;;;;;;22.13;6.69;;;;;;;;;;350716;149;865031;-58
2022/01/09 02:17:30;;;;;;;31.63;10.26;;;;;;;;;;355924;149;859323;-58
2022/01/09 02:18:32;;;;;;;21.49;7.89;;;;;;;;;;356480;147;866569;-58
2022/01/09 02:19:33;;;;;;;31.06;10.16;;;;;;;;;;356604;147;866653;-58
2022/01/09 02:20:36;;;;;;;31.46;10.09;;;;;;;;;;356972;149;857314;-58
2022/01/09 02:21:39;;;;;;;28.57;9.49;;;;;;;;;;355478;149;864002;-57
2022/01/09 02:22:41;;;;;;;16.49;6.04;;;;;;;;;;355567;149;859401;-58
2022/01/09 02:23:45;;;;;;;19.88;7.09;;;;;;;;;;356302;147;866664;-58
2022/01/09 02:24:46;;;;;;;18.68;7.79;;;;;;;;;;355171;151;866232;-58
2022/01/09 02:25:48;;;;;;;10.36;5.68;;;;;;;;;;353701;150;857654;-58
2022/01/09 02:26:50;;;;;;;23.89;7.55;;;;;;;;;;353982;149;865684;-58
2022/01/09 02:27:52;;;;;;;37.00;12.39;;;;;;;;;;354442;147;858644;-59
2022/01/09 02:28:55;;;;;;;20.47;8.19;;;;;;;;;;356356;147;859040;-58
2022/01/09 02:29:56;;;;;;;23.34;7.03;;;;;;;;;;353870;149;859029;-58
2022/01/09 02:30:58;;;;;;;15.29;6.41;;;;;;;;;;355831;149;867241;-58
2022/01/09 02:32:00;;;;;;;18.93;7.40;;;;;;;;;;352131;149;857290;-58
2022/01/09 02:33:02;;;;;;;15.79;6.58;;;;;;;;;;353512;149;857386;-58
2022/01/09 02:34:04;;;;;;;26.45;8.53;;;;;;;;;;352357;147;858593;-58
2022/01/09 02:35:05;;;;;;;19.18;7.84;;;;;;;;;;359120;148;856997;-58
2022/01/09 02:36:08;;;;;;;13.22;5.86;;;;;;;;;;346232;153;865531;-58
2022/01/09 02:37:09;;;;;;;19.68;7.74;;;;;;;;;;356021;147;856416;-58
2022/01/09 02:38:11;;;;;;;32.89;10.05;;;;;;;;;;355867;149;857282;-58
2022/01/09 02:39:12;;;;;;;26.22;9.13;;;;;;;;;;352914;150;865118;-58
2022/01/09 02:40:16;;;;;;;23.21;8.62;;;;;;;;;;352366;150;865362;-58
2022/01/09 02:41:18;;;;;;;17.06;6.58;;;;;;;;;;356887;147;858818;-58
2022/01/09 02:42:21;;;;;;;23.00;8.27;;;;;;;;;;355164;149;865100;-58
2022/01/09 02:43:22;;;;;;;21.12;7.84;;;;;;;;;;355052;147;857356;-58
2022/01/09 02:44:24;;;;;;;32.25;10.36;;;;;;;;;;355568;147;857120;-58
2022/01/09 02:45:27;;;;;;;20.97;7.97;;;;;;;;;;356699;149;857173;-57
2022/01/09 02:46:42;;;;;;;33.65;10.81;;;;;;;;;;358947;147;857752;-58
2022/01/09 02:47:33;;;;;;;43.12;13.64;;;;;;;;;;354324;147;857658;-59
2022/01/09 02:48:37;;;;;;;30.51;11.43;;;;;;;;;;358018;148;858155;-58
2022/01/09 02:49:39;;;;;;;23.07;8.67;;;;;;;;;;356769;148;857213;-60
2022/01/09 02:50:51;;;;;;;26.66;8.77;;;;;;;;;;356653;147;857269;-59
2022/01/09 02:51:46;;;;;;;29.92;9.57;;;;;;;;;;355916;147;857273;-60
2022/01/09 02:52:53;;;;;;;25.14;7.77;;;;;;;;;;356662;148;855963;-60
2022/01/09 02:54:08;;;;;;;42.43;12.67;;;;;;;;;;355398;150;857783;-60
2022/01/09 02:55:14;;;;;;;35.39;11.43;;;;;;;;;;349753;150;856552;-59
2022/01/09 02:56:17;;;;;;;39.57;11.55;;;;;;;;;;356402;148;867505;-60
2022/01/09 02:57:19;;;;;;;28.74;9.15;;;;;;;;;;351661;148;858207;-60
2022/01/09 02:58:22;;;;;;;32.79;11.12;;;;;;;;;;351868;150;857391;-58
2022/01/09 02:59:23;;;;;;;38.98;12.59;;;;;;;;;;351052;150;858990;-57
2022/01/09 03:00:27;;;;;;;35.43;11.91;;;;;;;;;;351257;151;857199;-58
2022/01/09 03:01:28;;;;;;;30.62;10.62;;;;;;;;;;352018;150;857340;-58
2022/01/09 03:02:30;;;;;;;24.10;8.56;;;;;;;;;;352717;150;866601;-59
2022/01/09 03:03:32;;;;;;;44.21;12.39;;;;;;;;;;355698;150;866961;-58
2022/01/09 03:04:34;;;;;;;29.24;8.85;;;;;;;;;;355220;150;866574;-58
2022/01/09 03:05:35;;;;;;;26.14;9.82;;;;;;;;;;353171;148;858930;-58
2022/01/09 03:06:37;;;;;;;14.96;6.16;;;;;;;;;;352455;150;862931;-57
2022/01/09 03:07:39;;;;;;;17.19;6.90;;;;;;;;;;352329;150;865624;-58
2022/01/09 03:08:40;;;;;;;16.57;7.43;;;;;;;;;;353108;148;858924;-60
2022/01/09 03:09:42;;;;;;;15.46;6.39;;;;;;;;;;353993;148;859105;-58
2022/01/09 03:10:44;;;;;;;21.81;8.59;;;;;;;;;;354175;150;865061;-58
2022/01/09 03:11:47;;;;;;;15.48;6.78;;;;;;;;;;352406;150;865613;-57
2022/01/09 03:12:49;;;;;;;23.23;8.83;;;;;;;;;;353143;148;864964;-58
2022/01/09 03:13:51;;;;;;;19.89;8.08;;;;;;;;;;353129;150;859894;-58
2022/01/09 03:14:52;;;;;;;31.19;13.26;;;;;;;;;;353531;150;857172;-58
2022/01/09 03:15:54;;;;;;;26.64;9.53;;;;;;;;;;353409;150;859447;-57
2022/01/09 03:16:55;;;;;;;13.34;6.76;;;;;;;;;;352048;148;859273;-57
2022/01/09 03:17:57;;;;;;;21.87;8.84;;;;;;;;;;352804;150;864007;-58
2022/01/09 03:18:58;;;;;;;30.48;10.03;;;;;;;;;;352496;148;859551;-57
2022/01/09 03:20:00;;;;;;;34.11;10.74;;;;;;;;;;351956;148;863822;-58
2022/01/09 03:21:02;;;;;;;51.28;14.39;;;;;;;;;;353640;148;865037;-59
2022/01/09 03:22:03;;;;;;;29.01;9.81;;;;;;;;;;351750;149;857303;-59
2022/01/09 03:23:05;;;;;;;27.27;10.15;;;;;;;;;;355235;150;859218;-59
2022/01/09 03:24:07;;;;;;;15.15;6.65;;;;;;;;;;354327;151;857226;-58
2022/01/09 03:25:09;;;;;;;18.22;7.62;;;;;;;;;;355411;151;860826;-58
2022/01/09 03:26:11;;;;;;;37.12;10.91;;;;;;;;;;352466;150;857359;-58
2022/01/09 03:27:13;;;;;;;25.13;9.68;;;;;;;;;;353476;150;857399;-59
2022/01/09 03:28:14;;;;;;;16.14;6.96;;;;;;;;;;354975;149;866952;-58
2022/01/09 03:29:16;;;;;;;19.94;7.84;;;;;;;;;;355367;149;858245;-59
2022/01/09 03:30:19;;;;;;;30.95;9.51;;;;;;;;;;354352;148;867660;-59
2022/01/09 03:31:20;;;;;;;14.06;6.31;;;;;;;;;;354182;152;856403;-59
2022/01/09 03:32:22;;;;;;;21.71;9.81;;;;;;;;;;354665;149;858212;-59
2022/01/09 03:33:23;;;;;;;24.21;9.68;;;;;;;;;;354827;149;863928;-59
2022/01/09 03:34:26;;;;;;;19.96;8.49;;;;;;;;;;355432;147;857424;-59
2022/01/09 03:35:27;;;;;;;19.99;8.56;;;;;;;;;;354249;152;865462;-59
2022/01/09 03:36:29;;;;;;;18.24;8.07;;;;;;;;;;354215;148;859379;-58
2022/01/09 03:37:30;;;;;;;19.62;8.74;;;;;;;;;;355414;148;865007;-59
2022/01/09 03:38:32;;;;;;;18.73;8.45;;;;;;;;;;354398;149;858134;-59
2022/01/09 03:39:34;;;;;;;15.89;5.43;;;;;;;;;;356686;149;864630;-59
2022/01/09 03:40:35;;;;;;;16.68;7.49;;;;;;;;;;355148;148;864874;-59
2022/01/09 03:41:37;;;;;;;22.33;8.94;;;;;;;;;;354096;149;864079;-58
2022/01/09 03:42:38;;;;;;;15.50;7.00;;;;;;;;;;355323;148;866165;-58
2022/01/09 03:43:40;;;;;;;13.34;6.94;;;;;;;;;;355302;148;860287;-56
2022/01/09 03:44:41;;;;;;;13.54;6.76;;;;;;;;;;354982;148;864968;-59
2022/01/09 03:45:43;;;;;;;15.74;7.61;;;;;;;;;;358152;149;857501;-59
2022/01/09 03:46:45;;;;;;;18.69;8.24;;;;;;;;;;356379;149;860841;-59
2022/01/09 03:47:46;;;;;;;17.81;8.02;;;;;;;;;;355363;148;865044;-58
2022/01/09 03:48:48;;;;;;;18.69;8.51;;;;;;;;;;356106;149;856217;-59
2022/01/09 03:49:50;;;;;;;15.71;7.91;;;;;;;;;;355048;147;861795;-59
2022/01/09 03:50:52;;;;;;;14.22;8.11;;;;;;;;;;354869;148;859133;-58
2022/01/09 03:51:55;;;;;;;16.72;8.98;;;;;;;;;;358229;147;864966;-58
2022/01/09 03:52:57;;;;;;;15.36;7.73;;;;;;;;;;350979;151;865729;-58
2022/01/09 03:53:59;;;;;;;16.52;7.98;;;;;;;;;;353470;150;857178;-59
2022/01/09 03:55:00;;;;;;;15.37;7.34;;;;;;;;;;353795;150;866276;-59
2022/01/09 03:56:02;;;;;;;11.28;6.34;;;;;;;;;;355651;148;866697;-59
2022/01/09 03:57:04;;;;;;;21.57;8.26;;;;;;;;;;356890;147;864966;-59
2022/01/09 03:58:06;;;;;;;15.77;7.94;;;;;;;;;;354014;150;864753;-59
2022/01/09 03:59:08;;;;;;;18.59;7.99;;;;;;;;;;354435;149;857246;-59
2022/01/09 04:00:11;;;;;;;20.13;8.49;;;;;;;;;;350866;150;865051;-58
2022/01/09 04:01:13;;;;;;;13.75;7.10;;;;;;;;;;352135;150;857652;-58
2022/01/09 04:02:15;;;;;;;14.40;7.51;;;;;;;;;;355341;150;860076;-58
2022/01/09 04:03:16;;;;;;;16.83;8.07;;;;;;;;;;356381;147;857337;-59
2022/01/09 04:04:18;;;;;;;16.85;7.89;;;;;;;;;;357746;147;857769;-58
2022/01/09 04:05:20;;;;;;;13.43;6.50;;;;;;;;;;357170;148;858650;-59
2022/01/09 04:06:24;;;;;;;19.79;8.89;;;;;;;;;;356035;151;857452;-59
2022/01/09 04:07:25;;;;;;;24.10;10.59;;;;;;;;;;357366;147;858210;-59
2022/01/09 04:08:27;;;;;;;20.89;8.93;;;;;;;;;;357031;147;857297;-59
2022/01/09 04:09:38;;;;;;;16.50;6.99;;;;;;;;;;355987;148;864410;-59
2022/01/09 04:10:39;;;;;;;14.02;7.34;;;;;;;;;;355282;148;857393;-58
2022/01/09 04:11:39;;;;;;;21.51;8.84;;;;;;;;;;355822;148;865722;-58
2022/01/09 04:12:47;;;;;;;14.87;6.30;;;;;;;;;;356453;148;856271;-58
2022/01/09 04:13:43;;;;;;;18.84;7.33;;;;;;;;;;356225;148;857447;-60
2022/01/09 04:14:45;;;;;;;18.25;8.07;;;;;;;;;;356634;147;864947;-58
2022/01/09 04:15:49;;;;;;;20.67;8.07;;;;;;;;;;356698;147;866751;-61
2022/01/09 04:16:50;;;;;;;20.92;8.06;;;;;;;;;;352243;150;857097;-61
2022/01/09 04:17:53;;;;;;;19.12;7.68;;;;;;;;;;355128;150;865640;-58
2022/01/09 04:18:54;;;;;;;14.43;7.23;;;;;;;;;;352282;150;864996;-58
2022/01/09 04:19:56;;;;;;;20.01;8.39;;;;;;;;;;351872;150;857446;-59
2022/01/09 04:20:58;;;;;;;17.20;7.71;;;;;;;;;;351371;151;863951;-59
2022/01/09 04:21:59;;;;;;;12.47;5.60;;;;;;;;;;352681;148;865074;-60
2022/01/09 04:23:01;;;;;;;19.87;8.19;;;;;;;;;;355430;149;858080;-59
2022/01/09 04:24:03;;;;;;;23.14;8.34;;;;;;;;;;352080;151;858057;-59
2022/01/09 04:25:05;;;;;;;11.95;6.60;;;;;;;;;;352366;150;858233;-59
2022/01/09 04:26:06;;;;;;;18.15;7.97;;;;;;;;;;354146;148;857325;-65
2022/01/09 04:27:08;;;;;;;23.25;7.89;;;;;;;;;;354836;150;858120;-67
2022/01/09 04:28:10;;;;;;;13.75;6.58;;;;;;;;;;353976;152;858163;-66
2022/01/09 04:29:12;;;;;;;14.37;6.91;;;;;;;;;;353446;148;863149;-65
2022/01/09 04:30:15;;;;;;;22.65;8.81;;;;;;;;;;353363;150;858361;-65
2022/01/09 04:31:17;;;;;;;17.65;8.79;;;;;;;;;;353173;151;857310;-66
2022/01/09 04:32:18;;;;;;;14.34;7.84;;;;;;;;;;352886;148;866914;-65
2022/01/09 04:33:20;;;;;;;16.57;7.57;;;;;;;;;;353000;148;858417;-66
2022/01/09 04:34:21;;;;;;;16.88;7.32;;;;;;;;;;353285;150;857712;-67
2022/01/09 04:35:23;;;;;;;16.07;6.85;;;;;;;;;;354369;150;860506;-65
2022/01/09 04:36:25;;;;;;;12.73;5.58;;;;;;;;;;352570;148;865840;-66
2022/01/09 04:37:26;;;;;;;22.79;8.86;;;;;;;;;;352925;148;858209;-66
2022/01/09 04:38:28;;;;;;;17.83;8.07;;;;;;;;;;353419;150;859140;-64
2022/01/09 04:39:30;;;;;;;21.23;9.59;;;;;;;;;;353465;148;857168;-65
2022/01/09 04:40:32;;;;;;;18.67;8.83;;;;;;;;;;353533;148;862295;-65
2022/01/09 04:41:34;;;;;;;13.47;5.75;;;;;;;;;;352980;151;857084;-65
2022/01/09 04:42:50;;;;;;;13.94;5.65;;;;;;;;;;353152;148;857254;-64
2022/01/09 04:43:42;;;;;;;19.36;8.35;;;;;;;;;;351752;148;857231;-64
2022/01/09 04:44:44;;;;;;;15.43;8.52;;;;;;;;;;353652;150;865315;-63
2022/01/09 04:45:46;;;;;;;13.71;7.25;;;;;;;;;;353367;148;858903;-64
2022/01/09 04:46:55;;;;;;;16.88;7.30;;;;;;;;;;352265;150;859363;-65
2022/01/09 04:47:52;;;;;;;15.56;8.28;;;;;;;;;;354815;148;859034;-66
2022/01/09 04:48:55;;;;;;;19.52;8.07;;;;;;;;;;367195;144;859108;-64
2022/01/09 04:49:59;;;;;;;20.37;9.76;;;;;;;;;;365971;144;866050;-65
2022/01/09 04:51:00;;;;;;;14.61;7.94;;;;;;;;;;367738;144;859431;-64
2022/01/09 04:52:04;;;;;;;17.51;8.81;;;;;;;;;;366495;144;864954;-66
2022/01/09 04:53:07;;;;;;;23.43;11.26;;;;;;;;;;366820;144;857622;-67
2022/01/09 04:54:08;;;;;;;22.30;10.55;;;;;;;;;;366546;144;866415;-68
2022/01/09 04:55:10;;;;;;;21.40;10.52;;;;;;;;;;370329;144;865235;-66
2022/01/09 04:56:13;;;;;;;16.64;7.55;;;;;;;;;;366022;144;865033;-65
2022/01/09 04:57:15;;;;;;;26.13;12.40;;;;;;;;;;367112;144;857274;-66
2022/01/09 04:58:17;;;;;;;19.05;8.07;;;;;;;;;;366305;144;857397;-65
2022/01/09 04:59:18;;;;;;;17.12;7.51;;;;;;;;;;366573;144;859622;-67
2022/01/09 05:00:20;;;;;;;20.93;9.89;;;;;;;;;;366402;144;856851;-68
2022/01/09 05:01:22;;;;;;;26.10;11.56;;;;;;;;;;367051;144;857299;-64
2022/01/09 05:02:24;;;;;;;27.56;16.05;;;;;;;;;;367736;144;865002;-69
2022/01/09 05:03:25;;;;;;;30.61;19.88;;;;;;;;;;365743;144;864914;-67
2022/01/09 05:04:27;;;;;;;26.21;15.49;;;;;;;;;;366378;144;865004;-69
2022/01/09 05:05:29;;;;;;;21.20;13.39;;;;;;;;;;365666;144;858616;-66
2022/01/09 05:06:31;;;;;;;28.18;14.17;;;;;;;;;;368469;144;864696;-66
2022/01/09 05:07:32;;;;;;;22.33;11.45;;;;;;;;;;365967;144;857129;-63
2022/01/09 05:08:34;;;;;;;22.73;10.78;;;;;;;;;;365794;144;865476;-64
2022/01/09 05:09:35;;;;;;;23.96;11.40;;;;;;;;;;366491;144;858126;-60
2022/01/09 05:10:37;;;;;;;17.37;10.19;;;;;;;;;;366856;144;858670;-63
2022/01/09 05:11:39;;;;;;;16.24;7.62;;;;;;;;;;367536;144;863767;-64
2022/01/09 05:12:40;;;;;;;16.72;9.44;;;;;;;;;;367233;144;860140;-63
2022/01/09 05:13:42;;;;;;;18.10;9.66;;;;;;;;;;366344;144;865625;-61
2022/01/09 05:14:43;;;;;;;16.54;8.79;;;;;;;;;;367331;144;864961;-61
2022/01/09 05:15:45;;;;;;;13.38;7.39;;;;;;;;;;366129;144;861772;-63
2022/01/09 05:16:47;;;;;;;13.96;7.69;;;;;;;;;;369526;144;857413;-63
2022/01/09 05:17:52;;;;;;;15.77;7.65;;;;;;;;;;368027;144;864914;-63
2022/01/09 05:18:57;;;;;;;14.90;8.11;;;;;;;;;;365956;144;857798;-61
2022/01/09 05:19:59;;;;;;;16.59;8.08;;;;;;;;;;368891;144;858180;-61
2022/01/09 05:21:00;;;;;;;14.06;7.56;;;;;;;;;;367201;144;856019;-61
2022/01/09 05:22:02;;;;;;;15.54;7.84;;;;;;;;;;366410;144;859832;-62
2022/01/09 05:23:04;;;;;;;14.50;7.30;;;;;;;;;;366810;144;866272;-62
2022/01/09 05:24:05;;;;;;;14.18;7.34;;;;;;;;;;366615;144;857695;-63
2022/01/09 05:25:07;;;;;;;12.86;6.93;;;;;;;;;;366684;144;864936;-63
2022/01/09 05:26:09;;;;;;;14.17;6.90;;;;;;;;;;366489;144;863390;-61
2022/01/09 05:27:11;;;;;;;16.72;8.01;;;;;;;;;;366124;144;858758;-62
2022/01/09 05:28:12;;;;;;;14.65;8.21;;;;;;;;;;368928;144;865640;-63
2022/01/09 05:29:14;;;;;;;16.24;6.35;;;;;;;;;;366602;144;858721;-63
2022/01/09 05:30:17;;;;;;;19.42;8.63;;;;;;;;;;366586;144;861880;-62
2022/01/09 05:31:18;;;;;;;15.17;7.50;;;;;;;;;;366479;144;859346;-62
2022/01/09 05:32:20;;;;;;;14.46;6.94;;;;;;;;;;367136;144;864017;-62
2022/01/09 05:33:21;;;;;;;16.89;7.61;;;;;;;;;;368094;144;858663;-60
2022/01/09 05:34:23;;;;;;;9.29;5.11;;;;;;;;;;366269;144;865016;-61
2022/01/09 05:35:25;;;;;;;17.67;9.02;;;;;;;;;;366369;144;857203;-61
2022/01/09 05:36:27;;;;;;;19.85;9.11;;;;;;;;;;368305;144;858677;-61
2022/01/09 05:37:28;;;;;;;6.84;4.41;;;;;;;;;;369842;144;857160;-62
2022/01/09 05:38:30;;;;;;;14.56;6.94;;;;;;;;;;365860;147;864735;-61
2022/01/09 05:39:32;;;;;;;18.37;7.90;;;;;;;;;;366816;144;857334;-62
2022/01/09 05:40:34;;;;;;;16.94;7.87;;;;;;;;;;365961;144;866607;-62
2022/01/09 05:41:36;;;;;;;12.07;6.73;;;;;;;;;;367619;144;857161;-62
2022/01/09 05:42:38;;;;;;;24.54;10.15;;;;;;;;;;369523;144;856330;-63
2022/01/09 05:43:40;;;;;;;14.15;7.99;;;;;;;;;;366123;144;856479;-62
2022/01/09 05:44:42;;;;;;;18.71;7.66;;;;;;;;;;367582;144;860287;-62
2022/01/09 05:45:43;;;;;;;17.03;7.45;;;;;;;;;;367975;144;864961;-61
2022/01/09 05:46:45;;;;;;;26.36;10.75;;;;;;;;;;366272;144;857933;-63
2022/01/09 05:47:46;;;;;;;24.09;10.16;;;;;;;;;;366656;144;864773;-63
2022/01/09 05:48:48;;;;;;;27.96;11.72;;;;;;;;;;366334;144;857231;-64
2022/01/09 05:49:50;;;;;;;28.35;9.91;;;;;;;;;;366660;144;860129;-63
2022/01/09 05:50:51;;;;;;;35.52;11.54;;;;;;;;;;367396;144;859366;-63
2022/01/09 05:51:53;;;;;;;19.65;8.68;;;;;;;;;;367153;144;865412;-64
2022/01/09 05:52:54;;;;;;;40.30;12.87;;;;;;;;;;366043;144;857455;-63
2022/01/09 05:53:56;;;;;;;21.96;8.09;;;;;;;;;;366495;144;859830;-61
2022/01/09 05:54:57;;;;;;;19.49;6.29;;;;;;;;;;366166;144;856854;-61
2022/01/09 05:55:59;;;;;;;37.75;12.26;;;;;;;;;;367222;144;861990;-60
2022/01/09 05:57:01;;;;;;;33.14;11.93;;;;;;;;;;366784;144;858541;-60
2022/01/09 05:58:02;;;;;;;32.95;12.65;;;;;;;;;;367493;144;864984;-61
2022/01/09 05:59:04;;;;;;;16.27;7.23;;;;;;;;;;367600;144;859538;-60
2022/01/09 06:00:06;;;;;;;27.48;10.59;;;;;;;;;;358287;148;858742;-60
2022/01/09 06:01:08;;;;;;;27.49;10.58;;;;;;;;;;355680;147;865567;-60